Time;durP1;ratioP1;P1;durP2;ratioP2;P2;SDS_P1;SDS_P2;PMS_P1;PMS_P2;Temp;Humidity;BMP_temperature;BMP_pressure;BME280_temperature;BME280_humidity;BME280_pressure;Samples;Min_cycle;Max_cycle;Signal;HPM_P1;HPM_P2
2022/11/10 00:01:02;;;;;;;11.95;3.03;;;11.50;99.90;;;;;;4940298;28;20279;-63
2022/11/10 00:03:28;;;;;;;11.52;2.53;;;11.40;99.90;;;;;;4949259;28;20475;-64
2022/11/10 00:05:54;;;;;;;14.00;2.85;;;11.40;99.90;;;;;;4944393;28;20038;-63
2022/11/10 00:08:20;;;;;;;11.35;2.85;;;11.60;99.90;;;;;;4946874;28;20499;-64
2022/11/10 00:10:58;;;;;;;7.40;2.30;;;11.50;99.90;;;;;;4944192;28;20097;-64
2022/11/10 00:13:24;;;;;;;10.85;2.50;;;11.40;99.90;;;;;;4945280;28;20058;-64
2022/11/10 00:18:34;;;;;;;10.80;2.35;;;11.40;99.90;;;;;;4944975;28;20050;-62
2022/11/10 00:21:07;;;;;;;16.80;3.08;;;11.30;99.90;;;;;;4943792;28;20035;-63
2022/11/10 00:23:33;;;;;;;;;;;11.40;99.90;;;;;;4945198;28;20126;-63
2022/11/10 00:25:58;;;;;;;12.30;2.60;;;11.20;99.90;;;;;;4944245;28;19997;-62
2022/11/10 00:28:24;;;;;;;16.42;2.75;;;11.30;99.90;;;;;;4945131;28;20296;-63
2022/11/10 00:30:50;;;;;;;13.20;2.58;;;11.30;99.90;;;;;;4946302;28;20337;-63
2022/11/10 00:33:15;;;;;;;9.27;2.63;;;11.40;99.90;;;;;;4944101;28;20039;-63
2022/11/10 00:35:41;;;;;;;17.67;3.65;;;11.30;99.90;;;;;;4948216;28;20034;-63
2022/11/10 00:38:06;;;;;;;11.93;2.80;;;11.40;99.90;;;;;;4945832;28;20107;-63
2022/11/10 00:40:32;;;;;;;11.65;2.83;;;11.40;99.90;;;;;;4943558;28;20562;-63
2022/11/10 00:42:57;;;;;;;27.48;3.30;;;11.30;99.90;;;;;;4943564;28;20039;-63
2022/11/10 00:45:23;;;;;;;14.02;2.90;;;11.30;99.90;;;;;;4939058;28;20039;-62
2022/11/10 00:47:48;;;;;;;11.43;2.78;;;11.30;99.90;;;;;;4951294;28;20332;-62
2022/11/10 00:50:14;;;;;;;13.48;2.35;;;11.10;99.90;;;;;;4939821;28;20031;-63
2022/11/10 00:52:39;;;;;;;17.38;3.30;;;11.10;99.90;;;;;;4943012;28;20479;-63
2022/11/10 00:55:05;;;;;;;10.55;2.40;;;11.20;99.90;;;;;;4928460;28;20027;-62
2022/11/10 00:57:31;;;;;;;15.35;2.60;;;11.20;99.90;;;;;;4946286;28;20032;-62
2022/11/10 00:59:57;;;;;;;14.25;2.60;;;11.20;99.90;;;;;;4947231;28;20675;-62
2022/11/10 01:02:22;;;;;;;16.55;3.10;;;11.40;99.90;;;;;;4943870;28;20546;-63
2022/11/10 01:04:48;;;;;;;14.00;2.78;;;11.30;99.90;;;;;;4944472;28;20031;-63
2022/11/10 01:07:13;;;;;;;17.38;3.05;;;11.30;99.90;;;;;;4941847;28;20055;-63
2022/11/10 01:09:39;;;;;;;13.27;2.72;;;11.10;99.90;;;;;;4945915;28;20090;-63
2022/11/10 01:12:04;;;;;;;13.65;2.67;;;11.10;99.90;;;;;;4943400;28;20057;-63
2022/11/10 01:14:30;;;;;;;12.27;2.17;;;11.30;99.90;;;;;;4945618;28;20047;-63
2022/11/10 01:16:55;;;;;;;10.75;2.47;;;11.20;99.90;;;;;;4946999;28;20027;-62
2022/11/10 01:19:21;;;;;;;17.63;2.70;;;11.20;99.90;;;;;;4944434;28;20122;-63
2022/11/10 01:21:50;;;;;;;14.77;2.78;;;11.30;99.90;;;;;;4952238;28;20522;-62
2022/11/10 01:24:18;;;;;;;14.68;2.47;;;11.20;99.90;;;;;;4941906;28;20559;-63
2022/11/10 01:26:44;;;;;;;15.10;3.13;;;11.20;99.90;;;;;;4945898;28;20478;-63
2022/11/10 01:29:09;;;;;;;8.45;2.50;;;11.20;99.90;;;;;;4944451;28;20123;-63
2022/11/10 01:31:35;;;;;;;13.32;2.70;;;11.20;99.90;;;;;;4948981;28;20669;-63
2022/11/10 01:34:00;;;;;;;12.80;3.17;;;11.10;99.90;;;;;;4953186;28;20742;-62
2022/11/10 01:36:26;;;;;;;12.45;2.72;;;11.10;99.90;;;;;;4945721;28;20073;-63
2022/11/10 01:38:51;;;;;;;13.88;2.97;;;11.20;99.90;;;;;;4941232;28;20394;-63
2022/11/10 01:41:17;;;;;;;11.68;2.75;;;11.00;99.90;;;;;;4946489;28;20041;-63
2022/11/10 01:43:43;;;;;;;17.13;3.10;;;11.10;99.90;;;;;;4942779;28;20741;-63
2022/11/10 01:46:10;;;;;;;12.10;2.40;;;11.00;99.90;;;;;;4940869;28;20047;-63
2022/11/10 01:48:42;;;;;;;11.20;2.40;;;11.10;99.90;;;;;;4946515;28;20052;-63
2022/11/10 01:51:24;;;;;;;11.63;2.47;;;10.90;99.90;;;;;;4944765;28;20043;-62
2022/11/10 01:53:55;;;;;;;9.75;2.60;;;10.70;99.90;;;;;;4942165;28;20035;-63
2022/11/10 01:56:22;;;;;;;13.65;2.58;;;10.80;99.90;;;;;;4940540;28;20534;-63
2022/11/10 01:59:05;;;;;;;12.05;2.70;;;10.90;99.90;;;;;;4942435;28;20200;-64
2022/11/10 02:01:30;;;;;;;14.50;3.20;;;10.80;99.90;;;;;;4941535;28;20043;-63
2022/11/10 02:04:02;;;;;;;11.60;2.38;;;10.90;99.90;;;;;;4947356;28;20059;-63
2022/11/10 02:06:32;;;;;;;12.75;3.08;;;10.90;99.90;;;;;;4942822;28;20526;-63
2022/11/10 02:08:58;;;;;;;11.02;2.65;;;11.00;99.90;;;;;;4944499;28;20054;-63
2022/11/10 02:11:25;;;;;;;13.02;2.88;;;10.90;99.90;;;;;;4939890;28;20042;-63
2022/11/10 02:13:51;;;;;;;16.92;3.38;;;10.90;99.90;;;;;;4946799;28;20053;-64
2022/11/10 02:16:17;;;;;;;12.45;2.92;;;10.90;99.90;;;;;;4944319;28;20057;-64
2022/11/10 02:18:43;;;;;;;12.32;2.90;;;10.80;99.90;;;;;;4944255;28;20031;-63
2022/11/10 02:21:09;;;;;;;17.58;3.00;;;10.70;99.90;;;;;;4948772;28;20049;-63
2022/11/10 02:23:35;;;;;;;11.68;2.38;;;10.80;99.90;;;;;;4946437;28;20030;-63
2022/11/10 02:26:05;;;;;;;13.80;2.80;;;10.90;99.90;;;;;;4942540;28;20039;-63
2022/11/10 02:28:36;;;;;;;16.33;2.85;;;11.00;99.90;;;;;;4947767;28;20483;-64
2022/11/10 02:31:02;;;;;;;17.17;3.10;;;10.90;99.90;;;;;;4949259;28;20050;-63
2022/11/10 02:33:28;;;;;;;14.50;3.47;;;10.80;99.90;;;;;;4961776;28;20049;-63
2022/11/10 02:35:53;;;;;;;13.38;2.95;;;10.80;99.90;;;;;;4964425;28;20039;-63
2022/11/10 02:38:19;;;;;;;12.73;2.70;;;10.70;99.90;;;;;;4961241;28;20467;-63
2022/11/10 02:40:45;;;;;;;12.15;3.28;;;10.70;99.90;;;;;;4963342;28;20038;-64
2022/11/10 02:43:13;;;;;;;13.18;3.20;;;10.90;99.90;;;;;;4964339;28;20083;-64
2022/11/10 02:45:42;;;;;;;11.80;2.63;;;10.70;99.90;;;;;;4964425;28;20046;-63
2022/11/10 02:48:09;;;;;;;16.55;3.10;;;10.60;99.90;;;;;;4965840;28;20030;-63
2022/11/10 02:50:35;;;;;;;14.88;3.22;;;10.70;99.90;;;;;;4965761;28;20030;-63
2022/11/10 02:53:00;;;;;;;13.00;2.92;;;10.70;99.90;;;;;;4954312;28;20493;-64
2022/11/10 02:55:26;;;;;;;12.55;2.72;;;10.70;99.90;;;;;;4945139;28;20063;-63
2022/11/10 02:57:52;;;;;;;11.35;2.40;;;10.90;99.90;;;;;;4943443;28;20046;-64
2022/11/10 03:00:18;;;;;;;22.60;3.58;;;10.80;99.90;;;;;;4942715;28;20031;-64
2022/11/10 03:02:44;;;;;;;17.27;3.15;;;10.80;99.90;;;;;;4941041;28;20087;-64
2022/11/10 03:05:10;;;;;;;13.35;3.08;;;10.70;99.90;;;;;;4944670;28;20026;-64
2022/11/10 03:07:35;;;;;;;15.35;2.80;;;10.80;99.90;;;;;;4943642;28;20122;-64
2022/11/10 03:10:01;;;;;;;18.00;2.60;;;10.90;99.90;;;;;;4944812;28;20070;-64
2022/11/10 03:12:27;;;;;;;18.85;3.40;;;10.90;99.90;;;;;;4967271;28;20096;-64
2022/11/10 03:14:52;;;;;;;11.88;3.40;;;10.90;99.90;;;;;;4971720;28;20023;-64
2022/11/10 03:17:18;;;;;;;17.38;3.10;;;10.80;99.90;;;;;;4963787;28;20046;-65
2022/11/10 03:19:43;;;;;;;14.55;2.78;;;10.80;99.90;;;;;;4955870;28;20477;-64
2022/11/10 03:22:09;;;;;;;14.52;2.75;;;10.70;99.90;;;;;;4947432;28;20030;-63
2022/11/10 03:24:34;;;;;;;16.10;2.78;;;10.70;99.90;;;;;;4941443;28;20039;-64
2022/11/10 03:27:00;;;;;;;17.58;3.25;;;10.70;99.90;;;;;;4945100;29;20483;-64
2022/11/10 03:29:25;;;;;;;15.40;3.25;;;10.60;99.90;;;;;;4941168;29;20478;-64
2022/11/10 03:31:51;;;;;;;16.67;3.13;;;10.60;99.90;;;;;;4941305;28;20062;-64
2022/11/10 03:34:17;;;;;;;14.27;2.88;;;10.70;99.90;;;;;;4947354;28;20042;-64
2022/11/10 03:36:43;;;;;;;15.27;2.88;;;10.60;99.90;;;;;;4948041;28;20046;-64
2022/11/10 03:39:08;;;;;;;13.75;2.70;;;10.70;99.90;;;;;;4944530;28;20047;-64
2022/11/10 03:41:34;;;;;;;10.68;2.92;;;10.80;99.90;;;;;;4943762;28;20475;-64
2022/11/10 03:43:59;;;;;;;13.55;3.40;;;10.90;99.90;;;;;;4953368;28;20037;-64
2022/11/10 03:46:25;;;;;;;14.07;2.78;;;10.90;99.90;;;;;;4943970;28;20174;-64
2022/11/10 03:48:50;;;;;;;14.52;2.90;;;10.70;99.90;;;;;;4945970;28;20114;-64
2022/11/10 03:51:16;;;;;;;13.45;2.72;;;10.60;99.90;;;;;;4944922;28;20047;-64
2022/11/10 03:53:41;;;;;;;13.93;2.95;;;10.60;99.90;;;;;;4952352;28;20039;-64
2022/11/10 03:56:07;;;;;;;15.57;2.80;;;10.60;99.90;;;;;;4946143;28;20040;-64
2022/11/10 03:58:33;;;;;;;11.27;2.65;;;10.50;99.90;;;;;;4944824;28;20033;-64
2022/11/10 04:00:58;;;;;;;19.35;2.90;;;10.70;99.90;;;;;;4931116;28;20045;-64
2022/11/10 04:03:24;;;;;;;16.60;2.88;;;10.70;99.90;;;;;;4940583;28;20047;-64
2022/11/10 04:16:49;;;;;;;15.05;3.13;;;10.60;99.90;;;;;;4951267;28;20122;-65
2022/11/10 04:19:14;;;;;;;15.57;3.05;;;10.70;99.90;;;;;;4943225;28;20142;-64
2022/11/10 04:21:40;;;;;;;13.15;2.97;;;10.70;99.90;;;;;;4944637;28;20536;-64
2022/11/10 04:24:06;;;;;;;11.45;2.85;;;10.80;99.90;;;;;;4949041;28;20050;-64
2022/11/10 04:26:32;;;;;;;12.45;2.72;;;10.70;99.90;;;;;;4925895;28;20036;-64
2022/11/10 04:29:03;;;;;;;14.82;2.88;;;10.70;99.90;;;;;;4942983;28;20059;-64
2022/11/10 04:31:30;;;;;;;13.65;2.75;;;10.60;99.90;;;;;;4946886;28;20024;-64
2022/11/10 04:33:56;;;;;;;14.18;3.15;;;10.40;99.90;;;;;;4947846;28;20046;-64
2022/11/10 04:36:27;;;;;;;15.75;3.10;;;10.40;99.90;;;;;;4925226;28;20138;-64
2022/11/10 04:38:56;;;;;;;12.90;2.65;;;10.50;99.90;;;;;;4949630;28;20106;-64
2022/11/10 04:41:23;;;;;;;15.35;2.67;;;10.60;99.90;;;;;;4942713;28;20129;-64
2022/11/10 04:43:49;;;;;;;14.95;3.17;;;10.60;99.90;;;;;;4949628;28;20031;-64
2022/11/10 04:46:36;;;;;;;12.80;2.92;;;10.60;99.90;;;;;;4945744;28;20046;-64
2022/11/10 04:49:02;;;;;;;12.45;2.90;;;10.60;99.90;;;;;;4940279;28;20527;-64
2022/11/10 04:51:32;;;;;;;14.52;3.25;;;10.70;99.90;;;;;;4946795;28;20050;-64
2022/11/10 04:53:58;;;;;;;11.68;2.90;;;10.60;99.90;;;;;;4945601;28;20042;-64
2022/11/10 04:56:24;;;;;;;16.65;3.20;;;10.60;99.90;;;;;;4939096;28;20035;-64
2022/11/10 04:58:50;;;;;;;16.30;3.10;;;10.70;99.90;;;;;;4943000;28;20027;-64
2022/11/10 05:01:21;;;;;;;14.57;3.03;;;10.50;99.90;;;;;;4941028;28;21000;-64
2022/11/10 05:03:48;;;;;;;19.38;2.92;;;10.50;99.90;;;;;;4952548;28;20572;-64
2022/11/10 05:06:14;;;;;;;15.82;3.47;;;10.60;99.90;;;;;;4941748;28;20621;-64
2022/11/10 05:08:41;;;;;;;19.25;3.10;;;10.70;99.90;;;;;;4948306;28;20066;-64
2022/11/10 05:11:06;;;;;;;15.25;3.20;;;10.70;99.90;;;;;;4943313;28;20046;-64
2022/11/10 05:13:32;;;;;;;15.90;3.17;;;10.60;99.90;;;;;;4943500;28;20031;-65
2022/11/10 05:15:58;;;;;;;15.23;3.13;;;10.60;99.90;;;;;;4950748;28;20085;-64
2022/11/10 05:18:24;;;;;;;20.38;4.00;;;10.70;99.90;;;;;;4942868;28;20031;-64
2022/11/10 05:20:52;;;;;;;16.02;2.63;;;10.60;99.90;;;;;;4944680;28;20664;-64
2022/11/10 05:26:13;;;;;;;13.15;3.28;;;10.40;99.90;;;;;;4943545;28;20050;-64
2022/11/10 05:28:40;;;;;;;16.67;3.42;;;10.40;99.90;;;;;;4947237;28;20503;-64
2022/11/10 05:31:06;;;;;;;15.05;3.22;;;10.40;99.90;;;;;;4947144;28;20046;-64
2022/11/10 05:33:33;;;;;;;14.20;3.47;;;10.50;99.90;;;;;;4948971;28;20562;-64
2022/11/10 05:36:00;;;;;;;18.08;3.30;;;10.40;99.90;;;;;;4942214;28;20051;-64
2022/11/10 05:38:26;;;;;;;17.77;3.38;;;10.40;99.90;;;;;;4941215;28;20042;-64
2022/11/10 05:40:52;;;;;;;15.85;3.00;;;10.30;99.90;;;;;;4946022;28;20179;-64
2022/11/10 05:43:17;;;;;;;19.25;2.90;;;10.40;99.90;;;;;;4942175;28;20032;-64
2022/11/10 05:45:43;;;;;;;12.20;2.83;;;10.40;99.90;;;;;;4939951;28;20095;-64
2022/11/10 05:48:09;;;;;;;19.63;3.00;;;10.50;99.90;;;;;;4945211;28;20035;-64
2022/11/10 05:50:35;;;;;;;19.92;3.25;;;10.60;99.90;;;;;;4947119;28;20335;-64
2022/11/10 05:53:00;;;;;;;15.57;3.28;;;10.40;99.90;;;;;;4950595;28;20673;-64
2022/11/10 05:55:27;;;;;;;19.65;3.28;;;10.50;99.90;;;;;;4942308;28;21148;-64
2022/11/10 05:57:55;;;;;;;15.05;3.00;;;10.20;99.90;;;;;;4951398;28;20042;-64
2022/11/10 06:00:24;;;;;;;15.35;3.10;;;10.10;99.90;;;;;;4945930;28;20045;-64
2022/11/10 06:03:03;;;;;;;17.58;3.30;;;;;;;;;;4948761;28;20069;-64
2022/11/10 06:05:31;;;;;;;15.70;3.53;;;9.80;99.90;;;;;;4947597;28;20031;-64
2022/11/10 06:07:57;;;;;;;18.67;3.33;;;10.00;99.90;;;;;;4945057;28;20530;-64
2022/11/10 06:10:23;;;;;;;13.73;2.88;;;10.20;99.90;;;;;;4937547;28;20039;-64
2022/11/10 06:12:49;;;;;;;19.60;3.58;;;10.20;99.90;;;;;;4946474;28;20031;-64
2022/11/10 06:15:15;;;;;;;17.27;3.40;;;10.10;99.90;;;;;;4949947;28;20050;-64
2022/11/10 06:17:41;;;;;;;13.13;2.95;;;10.00;99.90;;;;;;4945769;28;20458;-64
2022/11/10 06:20:07;;;;;;;14.45;3.22;;;10.00;99.90;;;;;;4950389;28;21025;-64
2022/11/10 06:22:33;;;;;;;16.55;3.30;;;10.00;99.90;;;;;;4948073;28;20418;-64
2022/11/10 06:24:59;;;;;;;15.85;2.95;;;10.10;99.90;;;;;;4942234;28;20027;-64
2022/11/10 06:27:24;;;;;;;18.67;2.83;;;10.10;99.90;;;;;;4946278;28;20656;-65
2022/11/10 06:29:50;;;;;;;15.10;3.05;;;10.20;99.90;;;;;;4946836;28;20038;-64
2022/11/10 06:32:15;;;;;;;14.65;3.50;;;9.90;99.90;;;;;;4949397;28;20049;-64
2022/11/10 06:34:41;;;;;;;20.40;3.55;;;9.90;99.90;;;;;;4945891;28;20036;-64
2022/11/10 06:37:06;;;;;;;13.25;2.72;;;10.00;99.90;;;;;;4946659;28;20222;-64
2022/11/10 06:39:32;;;;;;;14.07;3.13;;;10.20;99.90;;;;;;4951540;28;20023;-64
2022/11/10 06:41:58;;;;;;;15.02;2.97;;;10.00;99.90;;;;;;4942354;28;20070;-64
2022/11/10 06:44:23;;;;;;;13.60;2.40;;;10.10;99.90;;;;;;4941318;28;20130;-65
2022/11/10 06:46:50;;;;;;;16.27;3.40;;;10.10;99.90;;;;;;4947056;28;20031;-64
2022/11/10 06:49:15;;;;;;;12.80;3.10;;;10.00;99.90;;;;;;4948256;28;20545;-64
2022/11/10 06:51:41;;;;;;;47.72;25.90;;;9.90;99.90;;;;;;4941692;28;20062;-70
2022/11/10 06:54:06;;;;;;;38.72;16.45;;;9.70;99.90;;;;;;4928601;28;20035;-63
2022/11/10 06:56:33;;;;;;;12.90;3.25;;;9.70;99.90;;;;;;4946177;28;20447;-63
2022/11/10 06:58:59;;;;;;;13.45;2.65;;;9.90;99.90;;;;;;4939528;28;20042;-63
2022/11/10 07:01:25;;;;;;;15.35;2.92;;;9.70;99.90;;;;;;4942861;28;20051;-63
2022/11/10 07:03:52;;;;;;;13.13;2.75;;;10.00;99.90;;;;;;4951945;28;20039;-63
2022/11/10 07:06:18;;;;;;;20.38;2.90;;;9.90;99.90;;;;;;4941722;28;20671;-63
2022/11/10 07:08:44;;;;;;;16.40;3.08;;;9.80;99.90;;;;;;4945299;28;20057;-63
2022/11/10 07:11:09;;;;;;;16.23;3.17;;;9.60;99.90;;;;;;4944431;28;20031;-63
2022/11/10 07:13:35;;;;;;;16.10;3.03;;;9.70;99.90;;;;;;4948166;28;20054;-63
2022/11/10 07:16:03;;;;;;;12.65;3.00;;;9.70;99.90;;;;;;4944696;28;20585;-64
2022/11/10 07:18:29;;;;;;;17.85;2.90;;;9.80;99.90;;;;;;4948361;28;20794;-63
2022/11/10 07:20:54;;;;;;;18.42;2.95;;;9.90;99.90;;;;;;4946884;28;20039;-63
2022/11/10 07:23:20;;;;;;;14.98;2.70;;;9.70;99.90;;;;;;4939483;28;20031;-63
2022/11/10 07:25:46;;;;;;;19.65;2.88;;;9.70;99.90;;;;;;4943995;28;20027;-63
2022/11/10 07:28:11;;;;;;;13.15;2.60;;;9.80;99.90;;;;;;4944516;28;20069;-63
2022/11/10 07:30:37;;;;;;;20.17;3.03;;;9.80;99.90;;;;;;4948705;28;20031;-63
2022/11/10 07:33:13;;;;;;;14.85;3.00;;;9.80;99.90;;;;;;4950072;28;20058;-63
2022/11/10 07:35:39;;;;;;;13.68;2.88;;;9.80;99.90;;;;;;4944294;28;20054;-63
2022/11/10 07:38:10;;;;;;;14.02;2.88;;;9.70;99.90;;;;;;4942939;28;20375;-63
2022/11/10 07:40:36;;;;;;;16.58;3.00;;;9.80;99.90;;;;;;4941889;28;20043;-63
2022/11/10 07:43:03;;;;;;;19.52;2.92;;;10.00;99.90;;;;;;4943611;28;20061;-63
2022/11/10 07:45:29;;;;;;;12.60;3.13;;;10.00;99.90;;;;;;4940842;28;20069;-63
2022/11/10 07:48:02;;;;;;;15.02;3.10;;;10.00;99.90;;;;;;4946963;28;20050;-63
2022/11/10 07:50:28;;;;;;;14.10;4.05;;;10.10;99.90;;;;;;4945694;28;20467;-63
2022/11/10 07:53:08;;;;;;;20.17;2.85;;;10.10;99.90;;;;;;4941335;28;20035;-63
2022/11/10 07:55:37;;;;;;;15.95;3.25;;;10.10;99.90;;;;;;4942335;28;20493;-63
2022/11/10 07:58:03;;;;;;;17.55;3.20;;;10.20;99.90;;;;;;4943992;28;20023;-63
2022/11/10 08:00:29;;;;;;;14.38;2.90;;;10.20;99.90;;;;;;4942883;28;20039;-63
2022/11/10 08:03:04;;;;;;;20.90;2.78;;;10.30;99.90;;;;;;4940413;28;20028;-63
2022/11/10 08:05:30;;;;;;;22.80;3.45;;;10.40;99.90;;;;;;4938605;28;20069;-64
2022/11/10 08:07:55;;;;;;;13.32;2.75;;;10.50;99.90;;;;;;4943754;28;20035;-63
2022/11/10 08:10:21;;;;;;;18.38;2.90;;;10.50;99.90;;;;;;4940444;28;20039;-63
2022/11/10 08:12:53;;;;;;;16.77;2.85;;;10.50;99.90;;;;;;4935425;28;20035;-63
2022/11/10 08:15:19;;;;;;;14.85;3.17;;;10.60;99.90;;;;;;4949303;28;20051;-63
2022/11/10 08:17:44;;;;;;;16.80;3.35;;;10.80;99.90;;;;;;4951071;28;20843;-63
2022/11/10 08:20:10;;;;;;;24.42;3.03;;;10.80;99.90;;;;;;4949326;28;20542;-63
2022/11/10 08:22:36;;;;;;;16.33;3.08;;;10.80;99.90;;;;;;4948977;28;20062;-63
2022/11/10 08:25:01;;;;;;;19.83;3.10;;;10.80;99.90;;;;;;4943245;28;20039;-63
2022/11/10 08:27:27;;;;;;;17.70;3.05;;;10.90;99.90;;;;;;4941141;28;20031;-63
2022/11/10 08:29:52;;;;;;;15.80;2.90;;;11.00;99.90;;;;;;4945243;28;20560;-62
2022/11/10 08:32:18;;;;;;;17.63;2.95;;;11.10;99.90;;;;;;4937891;28;20604;-62
2022/11/10 08:34:44;;;;;;;15.75;3.30;;;11.20;99.90;;;;;;4952845;28;20055;-63
2022/11/10 08:37:09;;;;;;;21.45;3.92;;;11.10;99.90;;;;;;4949343;28;20058;-63
2022/11/10 08:39:35;;;;;;;18.67;3.40;;;11.20;99.90;;;;;;4946355;28;20059;-63
2022/11/10 08:42:00;;;;;;;15.95;3.28;;;11.30;99.90;;;;;;4951003;28;20039;-63
2022/11/10 08:44:26;;;;;;;18.38;3.35;;;11.30;99.90;;;;;;4951235;28;20633;-63
2022/11/10 08:46:52;;;;;;;14.95;3.20;;;11.20;99.90;;;;;;4937881;28;20110;-63
2022/11/10 08:49:17;;;;;;;15.45;3.47;;;11.20;99.90;;;;;;4944138;28;20047;-63
2022/11/10 08:51:43;;;;;;;20.42;3.38;;;11.40;99.90;;;;;;4944781;28;20042;-63
2022/11/10 08:54:08;;;;;;;22.60;3.67;;;11.50;99.90;;;;;;4943652;28;20066;-63
2022/11/10 08:56:34;;;;;;;15.52;3.45;;;11.40;99.90;;;;;;4949344;28;20716;-63
2022/11/10 08:59:00;;;;;;;14.98;3.20;;;11.50;99.90;;;;;;4950298;28;20031;-63
2022/11/10 09:01:25;;;;;;;19.73;3.00;;;11.50;99.90;;;;;;4945033;28;20039;-63
2022/11/10 09:03:51;;;;;;;16.45;2.22;;;11.60;99.90;;;;;;4944531;28;20031;-63
2022/11/10 09:06:16;;;;;;;15.68;3.00;;;11.60;99.90;;;;;;4940224;28;20035;-63
2022/11/10 09:08:42;;;;;;;14.35;3.13;;;11.60;99.90;;;;;;4953244;28;20039;-63
2022/11/10 09:11:07;;;;;;;20.10;3.28;;;11.60;99.90;;;;;;4938930;28;20142;-63
2022/11/10 09:13:33;;;;;;;14.13;2.85;;;11.70;99.90;;;;;;4946012;28;20026;-63
2022/11/10 09:16:03;;;;;;;18.25;2.88;;;11.80;99.90;;;;;;4942647;28;20043;-63
2022/11/10 09:18:29;;;;;;;16.73;2.85;;;11.80;99.90;;;;;;4946269;28;20027;-62
2022/11/10 09:20:54;;;;;;;12.27;2.58;;;11.90;99.90;;;;;;4940616;28;20035;-63
2022/11/10 09:23:21;;;;;;;20.65;3.55;;;11.90;99.90;;;;;;4945468;28;20184;-63
2022/11/10 09:25:52;;;;;;;17.40;3.05;;;12.00;99.90;;;;;;4938469;28;20046;-63
2022/11/10 09:28:19;;;;;;;13.23;2.72;;;12.00;99.90;;;;;;4947258;28;20039;-63
2022/11/10 09:30:46;;;;;;;21.02;3.20;;;12.10;99.90;;;;;;4939118;28;20039;-63
2022/11/10 09:33:12;;;;;;;19.95;3.20;;;12.20;99.90;;;;;;4945848;28;20537;-63
2022/11/10 09:35:38;;;;;;;19.08;3.50;;;12.20;99.90;;;;;;4943630;28;20041;-63
2022/11/10 09:38:04;;;;;;;15.15;2.75;;;12.20;99.90;;;;;;4945802;28;20027;-62
2022/11/10 09:40:47;;;;;;;14.18;3.15;;;12.30;99.90;;;;;;4942707;28;20086;-63
2022/11/10 09:43:20;;;;;;;19.92;3.30;;;12.30;99.90;;;;;;4943747;28;20035;-63
2022/11/10 09:45:49;;;;;;;14.93;3.38;;;12.40;99.90;;;;;;4941141;28;20672;-63
2022/11/10 09:48:22;;;;;;;18.15;2.95;;;12.50;99.90;;;;;;4942141;28;20134;-63
2022/11/10 09:50:54;;;;;;;18.05;3.97;;;12.50;99.90;;;;;;4943708;28;20096;-62
2022/11/10 09:53:24;;;;;;;19.30;3.30;;;12.50;99.90;;;;;;4944554;28;20036;-63
2022/11/10 09:55:55;;;;;;;14.50;2.67;;;12.50;99.90;;;;;;4936206;28;20131;-63
2022/11/10 09:58:25;;;;;;;17.83;3.40;;;12.60;99.90;;;;;;4944690;28;20481;-63
2022/11/10 10:01:33;;;;;;;18.27;3.05;;;12.70;99.90;;;;;;4939896;28;20600;-63
2022/11/10 10:04:04;;;;;;;18.75;2.95;;;12.70;99.90;;;;;;4950199;28;20082;-62
2022/11/10 10:06:31;;;;;;;12.48;2.88;;;12.80;99.90;;;;;;4950608;28;20023;-63
2022/11/10 10:09:07;;;;;;;13.90;2.42;;;12.80;99.90;;;;;;4939879;28;20031;-62
2022/11/10 10:11:51;;;;;;;20.23;2.95;;;12.80;99.90;;;;;;4945363;28;20487;-62
2022/11/10 10:14:42;;;;;;;19.92;3.00;;;12.80;99.90;;;;;;4939454;28;20551;-63
2022/11/10 10:17:20;;;;;;;17.10;3.00;;;12.90;99.90;;;;;;4946999;28;20054;-62
2022/11/10 10:19:59;;;;;;;16.20;3.20;;;13.00;99.90;;;;;;4939586;28;20542;-63
2022/11/10 10:22:35;;;;;;;15.23;2.90;;;13.00;99.90;;;;;;4922864;29;20035;-62
2022/11/10 10:25:10;;;;;;;13.30;2.85;;;13.00;99.90;;;;;;4941052;28;20663;-63
2022/11/10 10:27:39;;;;;;;12.65;2.28;;;13.00;99.90;;;;;;4938728;28;20042;-63
2022/11/10 10:30:19;;;;;;;15.05;2.63;;;13.10;99.90;;;;;;4938379;28;20066;-62
2022/11/10 10:32:44;;;;;;;14.73;2.58;;;13.10;99.90;;;;;;4943782;28;20031;-62
2022/11/10 10:35:15;;;;;;;14.80;3.17;;;13.20;99.90;;;;;;4942252;28;20172;-62
2022/11/10 10:37:50;;;;;;;18.27;3.47;;;13.20;99.90;;;;;;4946983;28;20043;-62
2022/11/10 10:40:19;;;;;;;19.50;3.42;;;13.20;99.90;;;;;;4938150;28;20055;-62
2022/11/10 10:42:45;;;;;;;19.55;3.00;;;13.30;99.90;;;;;;4946023;28;20596;-62
2022/11/10 10:45:11;;;;;;;19.30;2.45;;;13.40;99.90;;;;;;4940838;28;20148;-62
2022/11/10 10:47:37;;;;;;;18.67;2.63;;;13.40;99.90;;;;;;4942399;28;20632;-62
2022/11/10 10:50:28;;;;;;;19.88;2.85;;;13.40;99.90;;;;;;4940282;28;20170;-62
2022/11/10 10:53:16;;;;;;;13.20;2.38;;;13.50;99.90;;;;;;4944675;28;20408;-62
2022/11/10 10:56:14;;;;;;;16.20;2.40;;;13.50;99.90;;;;;;4942761;28;20097;-62
2022/11/10 10:58:54;;;;;;;14.00;3.08;;;13.50;99.90;;;;;;4950181;28;20033;-62
2022/11/10 11:01:20;;;;;;;15.73;2.55;;;13.50;99.90;;;;;;4945985;28;20074;-62
2022/11/10 11:03:48;;;;;;;15.18;2.28;;;13.50;99.90;;;;;;4948206;28;20030;-62
2022/11/10 11:06:17;;;;;;;16.67;2.50;;;13.60;99.90;;;;;;4947610;28;20490;-62
2022/11/10 11:09:10;;;;;;;14.98;2.88;;;13.70;99.90;;;;;;4946907;28;20078;-62
2022/11/10 11:11:38;;;;;;;13.57;2.93;;;13.70;99.90;;;;;;4950567;28;20178;-62
2022/11/10 11:14:22;;;;;;;13.68;2.30;;;13.70;99.90;;;;;;4946425;28;20701;-62
2022/11/10 11:16:49;;;;;;;;;;;13.70;99.90;;;;;;4951446;28;20037;-62
2022/11/10 11:19:15;;;;;;;10.60;1.90;;;13.70;99.90;;;;;;4944802;28;19918;-62
2022/11/10 11:22:22;;;;;;;13.18;2.63;;;13.80;99.90;;;;;;4955241;28;20038;-62
2022/11/10 11:25:05;;;;;;;12.77;2.90;;;13.80;99.90;;;;;;4926458;29;20028;-62
2022/11/10 11:27:48;;;;;;;26.25;3.00;;;13.90;99.90;;;;;;4948036;28;20023;-62
2022/11/10 11:30:22;;;;;;;15.15;2.45;;;13.80;99.90;;;;;;4949391;28;20031;-62
2022/11/10 11:33:29;;;;;;;18.10;2.53;;;13.80;99.90;;;;;;4947194;28;20503;-62
2022/11/10 11:36:06;;;;;;;19.55;2.85;;;13.90;99.90;;;;;;4938273;28;20062;-62
2022/11/10 11:39:02;;;;;;;14.30;1.92;;;13.90;99.90;;;;;;4946236;28;20106;-62
2022/11/10 11:41:45;;;;;;;13.65;2.17;;;13.80;99.90;;;;;;4949415;28;20035;-62
2022/11/10 11:44:36;;;;;;;17.53;2.43;;;13.80;99.90;;;;;;4949629;28;20450;-62
2022/11/10 11:47:24;;;;;;;11.93;2.40;;;13.90;99.90;;;;;;4949255;28;20047;-62
2022/11/10 11:50:01;;;;;;;11.98;2.47;;;13.90;99.90;;;;;;4946371;28;20035;-62
2022/11/10 11:52:48;;;;;;;12.00;2.33;;;13.90;99.90;;;;;;4944385;28;20211;-62
2022/11/10 11:55:33;;;;;;;12.18;2.75;;;13.90;99.90;;;;;;4947097;28;20069;-62
2022/11/10 11:58:07;;;;;;;13.20;2.03;;;13.90;99.90;;;;;;4947043;28;20031;-62
2022/11/10 12:00:44;;;;;;;16.27;2.10;;;13.90;99.90;;;;;;4950379;28;20039;-62
2022/11/10 12:03:54;;;;;;;12.98;2.20;;;14.00;99.90;;;;;;4945739;28;20110;-62
2022/11/10 12:06:34;;;;;;;12.27;2.50;;;14.10;99.90;;;;;;4940733;28;20067;-62
2022/11/10 12:09:03;;;;;;;12.00;2.83;;;14.10;99.90;;;;;;4949921;28;20042;-62
2022/11/10 12:11:35;;;;;;;11.85;2.38;;;14.00;99.90;;;;;;4944320;28;20523;-63
2022/11/10 12:14:26;;;;;;;47.90;22.83;;;14.10;99.90;;;;;;4942446;28;20490;-62
2022/11/10 12:17:09;;;;;;;10.77;1.92;;;14.10;99.90;;;;;;4946181;28;20031;-62
2022/11/10 12:19:49;;;;;;;;;;;14.10;99.90;;;;;;4945770;28;20101;-62
2022/11/10 12:22:37;;;;;;;9.07;1.88;;;14.10;99.90;;;;;;4944826;28;19977;-62
2022/11/10 12:25:40;;;;;;;15.85;2.15;;;14.10;99.90;;;;;;4944070;28;20039;-62
2022/11/10 12:28:10;;;;;;;11.80;2.22;;;14.10;99.90;;;;;;4937946;28;20040;-62
2022/11/10 12:30:38;;;;;;;11.23;1.90;;;14.10;99.90;;;;;;4943324;28;20043;-62
2022/11/10 12:33:24;;;;;;;10.00;2.47;;;14.10;99.90;;;;;;4960205;28;20140;-62
2022/11/10 12:35:52;;;;;;;12.57;2.33;;;14.20;99.90;;;;;;4957811;28;20065;-62
2022/11/10 12:38:38;;;;;;;9.15;1.70;;;14.20;99.90;;;;;;4963250;28;20168;-62
2022/11/10 12:41:10;;;;;;;11.02;2.10;;;14.20;99.90;;;;;;4960506;28;20030;-62
2022/11/10 12:43:52;;;;;;;10.55;1.88;;;14.20;99.90;;;;;;4961849;28;20027;-62
2022/11/10 12:46:18;;;;;;;9.55;1.98;;;14.20;99.90;;;;;;4966788;28;20058;-62
2022/11/10 12:49:04;;;;;;;11.45;2.28;;;14.20;99.90;;;;;;4985929;28;20046;-62
2022/11/10 12:51:42;;;;;;;9.35;2.15;;;14.30;99.90;;;;;;4959012;28;20035;-62
2022/11/10 12:54:11;;;;;;;11.10;2.20;;;14.30;99.90;;;;;;4967590;28;20042;-62
2022/11/10 12:56:41;;;;;;;9.45;2.15;;;14.30;99.90;;;;;;4969699;28;20105;-62
2022/11/10 12:59:23;;;;;;;9.00;1.95;;;14.30;99.90;;;;;;4968478;28;20710;-62
2022/11/10 13:01:56;;;;;;;13.07;2.53;;;14.30;99.90;;;;;;4961480;28;20034;-62
2022/11/10 13:04:22;;;;;;;8.63;1.77;;;14.30;99.90;;;;;;4965079;28;20050;-62
2022/11/10 13:06:57;;;;;;;11.40;2.08;;;14.30;99.90;;;;;;4960367;28;20286;-62